sensor_id;sensor_type;location;lat;lon;timestamp;temperature;humidity
35565;DHT22;21668;44.784;10.336;2022-07-18T00:01:46;26.20;92.70
35565;DHT22;21668;44.784;10.336;2022-07-18T00:04:50;26.20;92.70
35565;DHT22;21668;44.784;10.336;2022-07-18T00:07:54;26.20;92.70
35565;DHT22;21668;44.784;10.336;2022-07-18T00:10:58;26.10;92.80
35565;DHT22;21668;44.784;10.336;2022-07-18T00:14:01;26.10;92.90
35565;DHT22;21668;44.784;10.336;2022-07-18T00:17:05;26.00;92.90
35565;DHT22;21668;44.784;10.336;2022-07-18T00:20:10;26.00;93.00
35565;DHT22;21668;44.784;10.336;2022-07-18T00:23:14;25.90;93.00
35565;DHT22;21668;44.784;10.336;2022-07-18T00:26:17;25.90;93.00
35565;DHT22;21668;44.784;10.336;2022-07-18T00:29:21;25.90;93.00
35565;DHT22;21668;44.784;10.336;2022-07-18T00:32:25;25.80;93.10
35565;DHT22;21668;44.784;10.336;2022-07-18T00:35:28;25.80;93.10
35565;DHT22;21668;44.784;10.336;2022-07-18T00:38:32;25.70;93.20
35565;DHT22;21668;44.784;10.336;2022-07-18T00:41:36;25.70;93.30
35565;DHT22;21668;44.784;10.336;2022-07-18T00:44:39;25.60;93.30
35565;DHT22;21668;44.784;10.336;2022-07-18T00:47:43;25.60;93.40
35565;DHT22;21668;44.784;10.336;2022-07-18T00:50:47;25.50;93.50
35565;DHT22;21668;44.784;10.336;2022-07-18T00:53:50;25.40;93.60
35565;DHT22;21668;44.784;10.336;2022-07-18T00:56:54;25.30;93.60
35565;DHT22;21668;44.784;10.336;2022-07-18T00:59:57;25.20;93.80
35565;DHT22;21668;44.784;10.336;2022-07-18T01:03:20;25.20;93.90
35565;DHT22;21668;44.784;10.336;2022-07-18T01:06:23;25.10;94.00
35565;DHT22;21668;44.784;10.336;2022-07-18T01:09:27;25.10;94.10
35565;DHT22;21668;44.784;10.336;2022-07-18T01:12:31;27.60;95.00
35565;DHT22;21668;44.784;10.336;2022-07-18T01:15:35;25.10;94.30
35565;DHT22;21668;44.784;10.336;2022-07-18T01:18:43;25.20;94.30
35565;DHT22;21668;44.784;10.336;2022-07-18T01:21:47;25.10;94.30
35565;DHT22;21668;44.784;10.336;2022-07-18T01:24:53;25.00;94.40
35565;DHT22;21668;44.784;10.336;2022-07-18T01:27:56;25.00;94.60
35565;DHT22;21668;44.784;10.336;2022-07-18T01:31:00;24.90;94.70
35565;DHT22;21668;44.784;10.336;2022-07-18T01:34:04;24.90;94.70
35565;DHT22;21668;44.784;10.336;2022-07-18T01:37:08;24.90;94.80
35565;DHT22;21668;44.784;10.336;2022-07-18T01:40:12;24.90;94.80
35565;DHT22;21668;44.784;10.336;2022-07-18T01:43:16;24.90;95.00
35565;DHT22;21668;44.784;10.336;2022-07-18T01:46:19;24.80;95.10
35565;DHT22;21668;44.784;10.336;2022-07-18T01:49:23;24.80;95.30
35565;DHT22;21668;44.784;10.336;2022-07-18T01:52:27;24.80;95.40
35565;DHT22;21668;44.784;10.336;2022-07-18T01:55:30;24.70;95.50
35565;DHT22;21668;44.784;10.336;2022-07-18T01:58:34;24.70;95.60
35565;DHT22;21668;44.784;10.336;2022-07-18T02:01:38;24.70;95.80
35565;DHT22;21668;44.784;10.336;2022-07-18T02:04:41;24.70;95.90
35565;DHT22;21668;44.784;10.336;2022-07-18T02:08:03;24.60;96.20
35565;DHT22;21668;44.784;10.336;2022-07-18T02:11:08;24.50;96.40
35565;DHT22;21668;44.784;10.336;2022-07-18T02:14:12;24.50;96.50
35565;DHT22;21668;44.784;10.336;2022-07-18T02:17:15;24.40;96.70
35565;DHT22;21668;44.784;10.336;2022-07-18T02:20:19;25.50;97.30
35565;DHT22;21668;44.784;10.336;2022-07-18T02:23:23;24.40;97.20
35565;DHT22;21668;44.784;10.336;2022-07-18T02:26:26;24.30;97.40
35565;DHT22;21668;44.784;10.336;2022-07-18T02:29:30;24.30;97.70
35565;DHT22;21668;44.784;10.336;2022-07-18T02:32:34;24.30;98.00
35565;DHT22;21668;44.784;10.336;2022-07-18T02:35:40;24.20;98.30
35565;DHT22;21668;44.784;10.336;2022-07-18T02:38:44;24.10;98.70
35565;DHT22;21668;44.784;10.336;2022-07-18T02:41:48;24.10;99.00
35565;DHT22;21668;44.784;10.336;2022-07-18T02:44:51;24.00;99.40
35565;DHT22;21668;44.784;10.336;2022-07-18T02:47:55;24.00;99.60
35565;DHT22;21668;44.784;10.336;2022-07-18T02:50:59;24.00;99.90
35565;DHT22;21668;44.784;10.336;2022-07-18T02:54:02;24.00;99.90
35565;DHT22;21668;44.784;10.336;2022-07-18T02:57:07;24.00;99.90
35565;DHT22;21668;44.784;10.336;2022-07-18T03:00:11;24.00;99.90
35565;DHT22;21668;44.784;10.336;2022-07-18T03:03:15;23.90;99.90
35565;DHT22;21668;44.784;10.336;2022-07-18T03:06:18;23.90;99.90
35565;DHT22;21668;44.784;10.336;2022-07-18T03:09:22;23.80;99.90
35565;DHT22;21668;44.784;10.336;2022-07-18T03:12:30;23.70;99.90
35565;DHT22;21668;44.784;10.336;2022-07-18T03:15:33;23.70;99.90
35565;DHT22;21668;44.784;10.336;2022-07-18T03:18:37;23.70;99.90
35565;DHT22;21668;44.784;10.336;2022-07-18T03:21:41;23.70;99.90
35565;DHT22;21668;44.784;10.336;2022-07-18T03:24:45;23.60;99.90
35565;DHT22;21668;44.784;10.336;2022-07-18T03:27:48;23.70;99.90
35565;DHT22;21668;44.784;10.336;2022-07-18T03:30:52;23.60;99.90
35565;DHT22;21668;44.784;10.336;2022-07-18T03:33:55;23.60;99.90
35565;DHT22;21668;44.784;10.336;2022-07-18T03:36:58;23.60;99.90
35565;DHT22;21668;44.784;10.336;2022-07-18T03:40:02;23.60;99.90
35565;DHT22;21668;44.784;10.336;2022-07-18T03:43:06;23.60;99.90
35565;DHT22;21668;44.784;10.336;2022-07-18T03:46:09;23.60;99.90
35565;DHT22;21668;44.784;10.336;2022-07-18T03:49:13;23.60;99.90
35565;DHT22;21668;44.784;10.336;2022-07-18T03:52:16;23.60;99.90
35565;DHT22;21668;44.784;10.336;2022-07-18T03:55:20;23.60;99.90
35565;DHT22;21668;44.784;10.336;2022-07-18T03:58:23;23.60;99.90
35565;DHT22;21668;44.784;10.336;2022-07-18T04:01:27;23.50;99.90
35565;DHT22;21668;44.784;10.336;2022-07-18T04:04:31;23.30;99.90
35565;DHT22;21668;44.784;10.336;2022-07-18T04:07:35;23.30;99.90
35565;DHT22;21668;44.784;10.336;2022-07-18T04:10:39;24.10;99.90
35565;DHT22;21668;44.784;10.336;2022-07-18T04:13:43;23.30;99.90
35565;DHT22;21668;44.784;10.336;2022-07-18T04:16:46;23.30;99.90
35565;DHT22;21668;44.784;10.336;2022-07-18T04:19:50;23.40;99.90
35565;DHT22;21668;44.784;10.336;2022-07-18T04:22:57;23.40;99.90
35565;DHT22;21668;44.784;10.336;2022-07-18T04:26:02;23.50;99.90
35565;DHT22;21668;44.784;10.336;2022-07-18T04:29:07;23.50;99.90
35565;DHT22;21668;44.784;10.336;2022-07-18T04:32:10;23.30;99.90
35565;DHT22;21668;44.784;10.336;2022-07-18T04:35:14;23.50;99.90
35565;DHT22;21668;44.784;10.336;2022-07-18T04:38:18;23.50;99.90
35565;DHT22;21668;44.784;10.336;2022-07-18T04:41:23;23.50;99.90
35565;DHT22;21668;44.784;10.336;2022-07-18T04:44:28;23.40;99.90
35565;DHT22;21668;44.784;10.336;2022-07-18T04:47:31;23.50;99.90
35565;DHT22;21668;44.784;10.336;2022-07-18T04:50:35;23.40;99.90
35565;DHT22;21668;44.784;10.336;2022-07-18T04:53:39;23.60;99.90
35565;DHT22;21668;44.784;10.336;2022-07-18T04:56:43;23.60;99.90
35565;DHT22;21668;44.784;10.336;2022-07-18T04:59:47;23.60;99.90
35565;DHT22;21668;44.784;10.336;2022-07-18T05:02:52;23.60;99.90
35565;DHT22;21668;44.784;10.336;2022-07-18T05:05:56;23.80;99.90
35565;DHT22;21668;44.784;10.336;2022-07-18T05:09:00;23.80;99.90
35565;DHT22;21668;44.784;10.336;2022-07-18T05:12:04;23.90;99.90
35565;DHT22;21668;44.784;10.336;2022-07-18T05:15:08;24.00;99.90
35565;DHT22;21668;44.784;10.336;2022-07-18T05:18:13;24.20;99.90
35565;DHT22;21668;44.784;10.336;2022-07-18T05:21:19;24.30;99.90
35565;DHT22;21668;44.784;10.336;2022-07-18T05:24:22;24.50;99.90
35565;DHT22;21668;44.784;10.336;2022-07-18T05:27:26;24.70;99.90
35565;DHT22;21668;44.784;10.336;2022-07-18T05:30:30;24.70;99.90
35565;DHT22;21668;44.784;10.336;2022-07-18T05:33:34;24.90;99.90
35565;DHT22;21668;44.784;10.336;2022-07-18T05:36:38;25.00;99.90
35565;DHT22;21668;44.784;10.336;2022-07-18T05:39:41;25.20;99.90
35565;DHT22;21668;44.784;10.336;2022-07-18T05:42:45;25.30;99.90
35565;DHT22;21668;44.784;10.336;2022-07-18T05:45:49;26.10;99.90
35565;DHT22;21668;44.784;10.336;2022-07-18T05:48:53;27.40;99.90
35565;DHT22;21668;44.784;10.336;2022-07-18T05:51:58;28.60;98.10
35565;DHT22;21668;44.784;10.336;2022-07-18T05:55:02;29.80;96.50
35565;DHT22;21668;44.784;10.336;2022-07-18T05:58:05;30.80;94.40
35565;DHT22;21668;44.784;10.336;2022-07-18T06:01:09;31.20;93.70
35565;DHT22;21668;44.784;10.336;2022-07-18T06:04:16;32.00;92.70
35565;DHT22;21668;44.784;10.336;2022-07-18T06:07:20;32.60;91.80
35565;DHT22;21668;44.784;10.336;2022-07-18T06:10:24;33.00;91.00
35565;DHT22;21668;44.784;10.336;2022-07-18T06:13:28;33.10;90.90
35565;DHT22;21668;44.784;10.336;2022-07-18T06:16:32;33.00;91.00
35565;DHT22;21668;44.784;10.336;2022-07-18T06:19:35;32.90;91.00
35565;DHT22;21668;44.784;10.336;2022-07-18T06:22:38;32.00;91.80
35565;DHT22;21668;44.784;10.336;2022-07-18T06:25:42;30.90;93.20
35565;DHT22;21668;44.784;10.336;2022-07-18T06:28:46;30.10;94.10
35565;DHT22;21668;44.784;10.336;2022-07-18T06:31:50;30.50;94.20
35565;DHT22;21668;44.784;10.336;2022-07-18T06:34:54;30.70;93.60
35565;DHT22;21668;44.784;10.336;2022-07-18T06:37:58;30.90;93.80
35565;DHT22;21668;44.784;10.336;2022-07-18T06:41:02;31.00;93.50
35565;DHT22;21668;44.784;10.336;2022-07-18T06:44:05;31.30;93.30
35565;DHT22;21668;44.784;10.336;2022-07-18T06:47:09;30.90;93.80
35565;DHT22;21668;44.784;10.336;2022-07-18T06:50:13;30.40;94.10
35565;DHT22;21668;44.784;10.336;2022-07-18T06:53:17;30.10;94.60
35565;DHT22;21668;44.784;10.336;2022-07-18T06:56:21;29.90;94.90
35565;DHT22;21668;44.784;10.336;2022-07-18T06:59:25;29.70;95.60
35565;DHT22;21668;44.784;10.336;2022-07-18T07:02:29;29.40;95.90
35565;DHT22;21668;44.784;10.336;2022-07-18T07:05:32;28.90;96.60
35565;DHT22;21668;44.784;10.336;2022-07-18T07:08:36;28.70;97.10
35565;DHT22;21668;44.784;10.336;2022-07-18T07:11:42;28.50;97.20
35565;DHT22;21668;44.784;10.336;2022-07-18T07:14:46;28.30;97.60
35565;DHT22;21668;44.784;10.336;2022-07-18T07:17:50;28.50;97.60
35565;DHT22;21668;44.784;10.336;2022-07-18T07:20:54;28.60;97.60
35565;DHT22;21668;44.784;10.336;2022-07-18T07:23:58;28.80;97.40
35565;DHT22;21668;44.784;10.336;2022-07-18T07:27:02;28.90;96.90
35565;DHT22;21668;44.784;10.336;2022-07-18T07:30:05;28.90;96.50
35565;DHT22;21668;44.784;10.336;2022-07-18T07:33:09;28.70;96.70
35565;DHT22;21668;44.784;10.336;2022-07-18T07:36:13;28.70;96.90
35565;DHT22;21668;44.784;10.336;2022-07-18T07:39:17;29.10;96.10
35565;DHT22;21668;44.784;10.336;2022-07-18T07:42:20;30.20;94.60
35565;DHT22;21668;44.784;10.336;2022-07-18T07:45:24;31.60;93.00
35565;DHT22;21668;44.784;10.336;2022-07-18T07:48:28;32.60;91.40
35565;DHT22;21668;44.784;10.336;2022-07-18T07:51:31;32.90;90.90
35565;DHT22;21668;44.784;10.336;2022-07-18T07:54:36;33.20;90.50
35565;DHT22;21668;44.784;10.336;2022-07-18T07:57:39;33.50;90.00
35565;DHT22;21668;44.784;10.336;2022-07-18T08:00:43;33.60;89.00
35565;DHT22;21668;44.784;10.336;2022-07-18T08:03:46;33.80;88.60
35565;DHT22;21668;44.784;10.336;2022-07-18T08:06:52;34.10;87.10
35565;DHT22;21668;44.784;10.336;2022-07-18T08:09:56;34.20;86.30
35565;DHT22;21668;44.784;10.336;2022-07-18T08:12:59;35.30;87.50
35565;DHT22;21668;44.784;10.336;2022-07-18T08:16:03;33.80;86.60
35565;DHT22;21668;44.784;10.336;2022-07-18T08:19:07;33.20;86.80
35565;DHT22;21668;44.784;10.336;2022-07-18T08:22:11;32.80;87.20
35565;DHT22;21668;44.784;10.336;2022-07-18T08:25:15;32.50;86.80
35565;DHT22;21668;44.784;10.336;2022-07-18T08:28:19;32.40;88.00
35565;DHT22;21668;44.784;10.336;2022-07-18T08:31:23;32.10;88.30
35565;DHT22;21668;44.784;10.336;2022-07-18T08:34:28;31.60;90.10
35565;DHT22;21668;44.784;10.336;2022-07-18T08:37:32;31.10;90.00
35565;DHT22;21668;44.784;10.336;2022-07-18T08:40:39;30.60;90.30
35565;DHT22;21668;44.784;10.336;2022-07-18T08:43:45;30.50;90.80
35565;DHT22;21668;44.784;10.336;2022-07-18T08:46:50;30.50;90.40
35565;DHT22;21668;44.784;10.336;2022-07-18T08:49:53;30.50;90.30
35565;DHT22;21668;44.784;10.336;2022-07-18T08:52:57;30.60;90.70
35565;DHT22;21668;44.784;10.336;2022-07-18T08:56:02;30.70;90.30
35565;DHT22;21668;44.784;10.336;2022-07-18T08:59:06;30.50;90.00
35565;DHT22;21668;44.784;10.336;2022-07-18T09:02:09;30.40;90.20
35565;DHT22;21668;44.784;10.336;2022-07-18T09:05:18;30.40;89.20
35565;DHT22;21668;44.784;10.336;2022-07-18T09:08:22;30.60;88.90
35565;DHT22;21668;44.784;10.336;2022-07-18T09:11:26;30.70;89.50
35565;DHT22;21668;44.784;10.336;2022-07-18T09:14:40;30.70;89.10
35565;DHT22;21668;44.784;10.336;2022-07-18T09:17:44;30.90;87.60
35565;DHT22;21668;44.784;10.336;2022-07-18T09:20:56;30.80;86.90
35565;DHT22;21668;44.784;10.336;2022-07-18T09:24:00;30.70;87.30
35565;DHT22;21668;44.784;10.336;2022-07-18T09:27:04;30.90;87.30
35565;DHT22;21668;44.784;10.336;2022-07-18T09:30:32;31.10;87.70
35565;DHT22;21668;44.784;10.336;2022-07-18T09:33:38;31.20;86.10
35565;DHT22;21668;44.784;10.336;2022-07-18T09:36:54;31.20;86.70
35565;DHT22;21668;44.784;10.336;2022-07-18T09:40:15;31.30;85.20
35565;DHT22;21668;44.784;10.336;2022-07-18T09:43:20;31.40;84.30
35565;DHT22;21668;44.784;10.336;2022-07-18T09:46:24;31.40;83.50
35565;DHT22;21668;44.784;10.336;2022-07-18T09:49:30;31.50;84.10
35565;DHT22;21668;44.784;10.336;2022-07-18T09:52:34;31.50;83.40
35565;DHT22;21668;44.784;10.336;2022-07-18T09:55:45;31.50;84.10
35565;DHT22;21668;44.784;10.336;2022-07-18T09:58:50;31.70;83.50
35565;DHT22;21668;44.784;10.336;2022-07-18T10:01:54;31.80;83.90
35565;DHT22;21668;44.784;10.336;2022-07-18T10:04:58;31.90;82.90
35565;DHT22;21668;44.784;10.336;2022-07-18T10:08:03;32.00;83.00
35565;DHT22;21668;44.784;10.336;2022-07-18T10:11:07;32.00;81.40
35565;DHT22;21668;44.784;10.336;2022-07-18T10:14:12;31.90;82.10
35565;DHT22;21668;44.784;10.336;2022-07-18T10:17:16;31.80;83.00
35565;DHT22;21668;44.784;10.336;2022-07-18T10:20:25;31.80;82.70
35565;DHT22;21668;44.784;10.336;2022-07-18T10:23:31;32.00;83.10
35565;DHT22;21668;44.784;10.336;2022-07-18T10:26:36;32.00;82.80
35565;DHT22;21668;44.784;10.336;2022-07-18T10:29:42;32.20;82.60
35565;DHT22;21668;44.784;10.336;2022-07-18T10:33:04;32.30;81.70
35565;DHT22;21668;44.784;10.336;2022-07-18T10:36:27;32.20;81.80
35565;DHT22;21668;44.784;10.336;2022-07-18T10:39:34;32.30;82.40
35565;DHT22;21668;44.784;10.336;2022-07-18T10:42:38;32.30;80.80
35565;DHT22;21668;44.784;10.336;2022-07-18T10:45:43;32.40;80.50
35565;DHT22;21668;44.784;10.336;2022-07-18T10:48:48;31.70;80.80
35565;DHT22;21668;44.784;10.336;2022-07-18T10:51:52;32.40;81.70
35565;DHT22;21668;44.784;10.336;2022-07-18T10:58:22;32.40;81.40
35565;DHT22;21668;44.784;10.336;2022-07-18T11:01:26;31.50;80.50
35565;DHT22;21668;44.784;10.336;2022-07-18T11:04:32;32.50;80.90
35565;DHT22;21668;44.784;10.336;2022-07-18T11:07:37;32.60;80.80
35565;DHT22;21668;44.784;10.336;2022-07-18T11:13:51;32.90;80.80
35565;DHT22;21668;44.784;10.336;2022-07-18T11:17:04;32.90;80.90
35565;DHT22;21668;44.784;10.336;2022-07-18T11:23:31;32.90;79.20
35565;DHT22;21668;44.784;10.336;2022-07-18T11:26:46;33.20;79.50
35565;DHT22;21668;44.784;10.336;2022-07-18T11:29:50;33.30;79.10
35565;DHT22;21668;44.784;10.336;2022-07-18T11:32:54;33.40;79.20
35565;DHT22;21668;44.784;10.336;2022-07-18T11:36:07;33.50;79.20
35565;DHT22;21668;44.784;10.336;2022-07-18T11:39:12;33.50;79.70
35565;DHT22;21668;44.784;10.336;2022-07-18T11:42:17;33.50;80.10
35565;DHT22;21668;44.784;10.336;2022-07-18T11:45:22;33.40;79.50
35565;DHT22;21668;44.784;10.336;2022-07-18T11:48:26;33.30;79.10
35565;DHT22;21668;44.784;10.336;2022-07-18T11:51:34;33.20;80.10
35565;DHT22;21668;44.784;10.336;2022-07-18T11:54:38;33.20;79.60
35565;DHT22;21668;44.784;10.336;2022-07-18T11:57:42;33.30;79.80
35565;DHT22;21668;44.784;10.336;2022-07-18T12:00:46;33.20;79.60
35565;DHT22;21668;44.784;10.336;2022-07-18T12:03:50;33.40;81.20
35565;DHT22;21668;44.784;10.336;2022-07-18T12:10:17;33.40;80.00
35565;DHT22;21668;44.784;10.336;2022-07-18T12:13:21;33.40;78.60
35565;DHT22;21668;44.784;10.336;2022-07-18T12:19:38;33.60;78.90
35565;DHT22;21668;44.784;10.336;2022-07-18T12:26:05;33.60;78.30
35565;DHT22;21668;44.784;10.336;2022-07-18T12:29:09;33.70;79.70
35565;DHT22;21668;44.784;10.336;2022-07-18T12:32:16;33.90;79.40
35565;DHT22;21668;44.784;10.336;2022-07-18T12:35:24;33.90;79.60
35565;DHT22;21668;44.784;10.336;2022-07-18T12:38:28;33.90;78.70
35565;DHT22;21668;44.784;10.336;2022-07-18T12:41:31;33.90;78.70
35565;DHT22;21668;44.784;10.336;2022-07-18T12:44:35;34.00;79.20
35565;DHT22;21668;44.784;10.336;2022-07-18T12:47:38;33.90;77.70
35565;DHT22;21668;44.784;10.336;2022-07-18T12:50:42;33.90;78.80
35565;DHT22;21668;44.784;10.336;2022-07-18T12:53:46;33.80;78.30
35565;DHT22;21668;44.784;10.336;2022-07-18T12:56:50;33.80;78.00
35565;DHT22;21668;44.784;10.336;2022-07-18T12:59:53;33.80;78.80
35565;DHT22;21668;44.784;10.336;2022-07-18T13:02:58;33.80;78.50
35565;DHT22;21668;44.784;10.336;2022-07-18T13:06:02;33.90;77.70
35565;DHT22;21668;44.784;10.336;2022-07-18T13:09:06;33.90;77.30
35565;DHT22;21668;44.784;10.336;2022-07-18T13:12:10;33.80;78.10
35565;DHT22;21668;44.784;10.336;2022-07-18T13:15:14;33.90;78.60
35565;DHT22;21668;44.784;10.336;2022-07-18T13:18:18;33.80;78.20
35565;DHT22;21668;44.784;10.336;2022-07-18T13:21:21;33.80;78.30
35565;DHT22;21668;44.784;10.336;2022-07-18T13:24:25;33.90;78.00
35565;DHT22;21668;44.784;10.336;2022-07-18T13:27:29;33.90;78.40
35565;DHT22;21668;44.784;10.336;2022-07-18T13:30:33;33.80;77.60
35565;DHT22;21668;44.784;10.336;2022-07-18T13:33:36;33.90;77.80
35565;DHT22;21668;44.784;10.336;2022-07-18T13:36:40;34.00;77.70
35565;DHT22;21668;44.784;10.336;2022-07-18T13:39:44;34.10;77.30
35565;DHT22;21668;44.784;10.336;2022-07-18T13:42:48;34.10;77.40
35565;DHT22;21668;44.784;10.336;2022-07-18T13:45:51;34.30;77.30
35565;DHT22;21668;44.784;10.336;2022-07-18T13:48:55;34.20;77.30
35565;DHT22;21668;44.784;10.336;2022-07-18T13:51:59;34.20;77.30
35565;DHT22;21668;44.784;10.336;2022-07-18T13:55:02;34.30;77.10
35565;DHT22;21668;44.784;10.336;2022-07-18T13:58:06;34.30;77.10
35565;DHT22;21668;44.784;10.336;2022-07-18T14:01:12;34.20;76.90
35565;DHT22;21668;44.784;10.336;2022-07-18T14:04:16;34.40;75.60
35565;DHT22;21668;44.784;10.336;2022-07-18T14:07:19;34.30;75.10
35565;DHT22;21668;44.784;10.336;2022-07-18T14:10:23;34.30;75.20
35565;DHT22;21668;44.784;10.336;2022-07-18T14:13:28;34.40;75.70
35565;DHT22;21668;44.784;10.336;2022-07-18T14:16:31;34.30;75.90
35565;DHT22;21668;44.784;10.336;2022-07-18T14:19:35;34.50;75.50
35565;DHT22;21668;44.784;10.336;2022-07-18T14:22:40;34.40;75.30
35565;DHT22;21668;44.784;10.336;2022-07-18T14:25:44;34.40;75.10
35565;DHT22;21668;44.784;10.336;2022-07-18T14:28:49;34.40;75.50
35565;DHT22;21668;44.784;10.336;2022-07-18T14:31:53;34.30;74.70
35565;DHT22;21668;44.784;10.336;2022-07-18T14:34:57;34.30;75.00
35565;DHT22;21668;44.784;10.336;2022-07-18T14:38:00;34.30;75.20
35565;DHT22;21668;44.784;10.336;2022-07-18T14:41:04;34.30;74.70
35565;DHT22;21668;44.784;10.336;2022-07-18T14:44:07;34.40;74.20
35565;DHT22;21668;44.784;10.336;2022-07-18T14:47:11;34.30;74.70
35565;DHT22;21668;44.784;10.336;2022-07-18T14:50:14;34.30;75.00
35565;DHT22;21668;44.784;10.336;2022-07-18T14:53:18;34.40;75.20
35565;DHT22;21668;44.784;10.336;2022-07-18T14:56:22;34.40;75.70
35565;DHT22;21668;44.784;10.336;2022-07-18T14:59:29;34.30;76.10
35565;DHT22;21668;44.784;10.336;2022-07-18T15:02:32;34.30;76.10
35565;DHT22;21668;44.784;10.336;2022-07-18T15:05:36;34.30;75.90
35565;DHT22;21668;44.784;10.336;2022-07-18T15:08:40;34.30;75.80
35565;DHT22;21668;44.784;10.336;2022-07-18T15:11:44;34.30;75.50
35565;DHT22;21668;44.784;10.336;2022-07-18T15:14:48;34.40;75.70
35565;DHT22;21668;44.784;10.336;2022-07-18T15:17:52;34.50;75.90
35565;DHT22;21668;44.784;10.336;2022-07-18T15:20:56;34.50;76.70
35565;DHT22;21668;44.784;10.336;2022-07-18T15:23:59;34.50;76.40
35565;DHT22;21668;44.784;10.336;2022-07-18T15:27:03;34.40;76.30
35565;DHT22;21668;44.784;10.336;2022-07-18T15:30:07;34.40;76.40
35565;DHT22;21668;44.784;10.336;2022-07-18T15:33:11;34.40;76.80
35565;DHT22;21668;44.784;10.336;2022-07-18T15:36:15;34.50;76.90
35565;DHT22;21668;44.784;10.336;2022-07-18T15:39:19;34.60;76.50
35565;DHT22;21668;44.784;10.336;2022-07-18T15:42:22;34.40;76.70
35565;DHT22;21668;44.784;10.336;2022-07-18T15:45:26;34.40;76.30
35565;DHT22;21668;44.784;10.336;2022-07-18T15:48:30;34.40;76.30
35565;DHT22;21668;44.784;10.336;2022-07-18T15:51:34;34.30;76.40
35565;DHT22;21668;44.784;10.336;2022-07-18T15:54:38;34.20;76.20
35565;DHT22;21668;44.784;10.336;2022-07-18T15:57:42;34.20;76.10
35565;DHT22;21668;44.784;10.336;2022-07-18T16:00:47;34.20;76.70
35565;DHT22;21668;44.784;10.336;2022-07-18T16:03:51;34.10;76.10
35565;DHT22;21668;44.784;10.336;2022-07-18T16:06:55;34.10;76.60
35565;DHT22;21668;44.784;10.336;2022-07-18T16:09:59;34.20;76.20
35565;DHT22;21668;44.784;10.336;2022-07-18T16:13:03;34.20;76.60
35565;DHT22;21668;44.784;10.336;2022-07-18T16:16:07;34.10;75.80
35565;DHT22;21668;44.784;10.336;2022-07-18T16:19:11;34.10;76.10
35565;DHT22;21668;44.784;10.336;2022-07-18T16:22:14;34.00;75.40
35565;DHT22;21668;44.784;10.336;2022-07-18T16:25:18;34.00;76.50
35565;DHT22;21668;44.784;10.336;2022-07-18T16:28:22;34.00;76.10
35565;DHT22;21668;44.784;10.336;2022-07-18T16:31:26;34.00;75.30
35565;DHT22;21668;44.784;10.336;2022-07-18T16:34:30;34.00;74.70
35565;DHT22;21668;44.784;10.336;2022-07-18T16:37:33;33.80;74.40
35565;DHT22;21668;44.784;10.336;2022-07-18T16:40:38;34.10;74.40
35565;DHT22;21668;44.784;10.336;2022-07-18T16:43:43;34.00;74.20
35565;DHT22;21668;44.784;10.336;2022-07-18T16:46:47;33.90;73.90
35565;DHT22;21668;44.784;10.336;2022-07-18T16:49:50;33.90;73.50
35565;DHT22;21668;44.784;10.336;2022-07-18T16:52:54;33.90;73.60
35565;DHT22;21668;44.784;10.336;2022-07-18T16:55:58;33.90;73.30
35565;DHT22;21668;44.784;10.336;2022-07-18T16:59:02;33.90;73.10
35565;DHT22;21668;44.784;10.336;2022-07-18T17:02:06;33.90;72.60
35565;DHT22;21668;44.784;10.336;2022-07-18T17:05:10;33.80;72.90
35565;DHT22;21668;44.784;10.336;2022-07-18T17:08:14;33.90;72.80
35565;DHT22;21668;44.784;10.336;2022-07-18T17:11:18;34.00;73.10
35565;DHT22;21668;44.784;10.336;2022-07-18T17:14:22;34.60;72.00
35565;DHT22;21668;44.784;10.336;2022-07-18T17:17:26;35.50;71.10
35565;DHT22;21668;44.784;10.336;2022-07-18T17:20:30;36.50;69.20
35565;DHT22;21668;44.784;10.336;2022-07-18T17:23:34;36.90;68.20
35565;DHT22;21668;44.784;10.336;2022-07-18T17:26:38;37.40;67.90
35565;DHT22;21668;44.784;10.336;2022-07-18T17:29:41;37.80;67.20
35565;DHT22;21668;44.784;10.336;2022-07-18T17:32:45;38.20;66.70
35565;DHT22;21668;44.784;10.336;2022-07-18T17:35:49;38.10;66.30
35565;DHT22;21668;44.784;10.336;2022-07-18T17:38:54;37.80;66.50
35565;DHT22;21668;44.784;10.336;2022-07-18T17:41:58;37.70;66.30
35565;DHT22;21668;44.784;10.336;2022-07-18T17:45:03;37.80;66.30
35565;DHT22;21668;44.784;10.336;2022-07-18T17:48:07;37.50;66.10
35565;DHT22;21668;44.784;10.336;2022-07-18T17:51:11;36.80;66.60
35565;DHT22;21668;44.784;10.336;2022-07-18T17:54:15;36.00;67.60
35565;DHT22;21668;44.784;10.336;2022-07-18T17:57:18;35.10;68.50
35565;DHT22;21668;44.784;10.336;2022-07-18T18:00:22;34.50;68.90
35565;DHT22;21668;44.784;10.336;2022-07-18T18:03:27;34.10;69.50
35565;DHT22;21668;44.784;10.336;2022-07-18T18:06:30;33.60;70.20
35565;DHT22;21668;44.784;10.336;2022-07-18T18:09:34;33.10;70.70
35565;DHT22;21668;44.784;10.336;2022-07-18T18:12:37;32.80;71.40
35565;DHT22;21668;44.784;10.336;2022-07-18T18:15:42;32.50;71.70
35565;DHT22;21668;44.784;10.336;2022-07-18T18:18:45;32.30;72.00
35565;DHT22;21668;44.784;10.336;2022-07-18T18:21:49;32.10;72.60
35565;DHT22;21668;44.784;10.336;2022-07-18T18:24:52;32.00;73.00
35565;DHT22;21668;44.784;10.336;2022-07-18T18:27:56;31.80;73.00
35565;DHT22;21668;44.784;10.336;2022-07-18T18:31:00;31.80;73.40
35565;DHT22;21668;44.784;10.336;2022-07-18T18:34:04;31.60;73.80
35565;DHT22;21668;44.784;10.336;2022-07-18T18:37:07;31.50;73.40
35565;DHT22;21668;44.784;10.336;2022-07-18T18:40:14;31.50;73.50
35565;DHT22;21668;44.784;10.336;2022-07-18T18:43:18;31.40;73.80
35565;DHT22;21668;44.784;10.336;2022-07-18T18:46:22;31.30;73.90
35565;DHT22;21668;44.784;10.336;2022-07-18T18:49:27;31.20;74.20
35565;DHT22;21668;44.784;10.336;2022-07-18T18:52:30;31.10;74.40
35565;DHT22;21668;44.784;10.336;2022-07-18T18:55:34;31.00;74.70
35565;DHT22;21668;44.784;10.336;2022-07-18T18:58:38;30.90;75.00
35565;DHT22;21668;44.784;10.336;2022-07-18T19:01:43;30.80;75.50
35565;DHT22;21668;44.784;10.336;2022-07-18T19:04:48;30.60;75.60
35565;DHT22;21668;44.784;10.336;2022-07-18T19:07:52;30.50;75.90
35565;DHT22;21668;44.784;10.336;2022-07-18T19:10:56;30.50;75.90
35565;DHT22;21668;44.784;10.336;2022-07-18T19:14:00;30.30;75.90
35565;DHT22;21668;44.784;10.336;2022-07-18T19:17:04;30.30;76.20
35565;DHT22;21668;44.784;10.336;2022-07-18T19:20:08;30.30;76.70
35565;DHT22;21668;44.784;10.336;2022-07-18T19:23:12;30.10;76.70
35565;DHT22;21668;44.784;10.336;2022-07-18T19:26:16;30.00;76.40